Time;durP1;ratioP1;P1;durP2;ratioP2;P2;SDS_P1;SDS_P2;PMS_P1;PMS_P2;Temp;Humidity;BMP_temperature;BMP_pressure;BME280_temperature;BME280_humidity;BME280_pressure;Samples;Min_cycle;Max_cycle;Signal;HPM_P1;HPM_P2
2023/08/21 00:03:46;;;;;;;2.35;1.75;;;;;;;;;;10433595;28;20948;-76
2023/08/21 00:08:47;;;;;;;1.80;1.80;;;;;;;;;;10422738;28;21071;-76
2023/08/21 00:13:49;;;;;;;1.83;1.67;;;;;;;;;;10419617;28;21009;-75
2023/08/21 00:18:50;;;;;;;1.48;1.45;;;;;;;;;;10404473;28;20309;-75
2023/08/21 00:23:51;;;;;;;1.52;1.42;;;;;;;;;;10419739;28;20215;-76
2023/08/21 00:28:52;;;;;;;1.67;1.65;;;;;;;;;;10416270;28;20227;-75
2023/08/21 00:33:53;;;;;;;1.58;1.50;;;;;;;;;;10423724;28;20267;-76
2023/08/21 00:38:55;;;;;;;2.08;1.92;;;;;;;;;;10418237;28;20226;-75
2023/08/21 00:43:56;;;;;;;3.67;1.95;;;;;;;;;;10399024;28;20313;-75
2023/08/21 00:48:58;;;;;;;1.77;1.73;;;;;;;;;;10412948;28;20249;-75
2023/08/21 00:53:59;;;;;;;1.88;1.77;;;;;;;;;;10397762;28;20265;-76
2023/08/21 00:59:00;;;;;;;1.80;1.80;;;;;;;;;;10412105;28;20255;-75
2023/08/21 01:04:01;;;;;;;1.80;1.70;;;;;;;;;;10398671;28;20219;-75
2023/08/21 01:09:09;;;;;;;1.70;1.60;;;;;;;;;;10414167;28;20215;-75
2023/08/21 01:14:13;;;;;;;2.90;2.03;;;;;;;;;;10420444;28;20317;-75
2023/08/21 01:19:25;;;;;;;1.60;1.50;;;;;;;;;;10422937;28;20873;-75
2023/08/21 01:24:27;;;;;;;1.27;1.27;;;;;;;;;;10415625;28;20227;-75
2023/08/21 01:29:28;;;;;;;1.60;1.48;;;;;;;;;;10419514;28;20273;-74
2023/08/21 01:34:32;;;;;;;1.75;1.75;;;;;;;;;;10405625;28;20251;-75
2023/08/21 01:39:34;;;;;;;1.50;1.50;;;;;;;;;;10408028;28;20226;-75
2023/08/21 01:44:35;;;;;;;1.70;1.70;;;;;;;;;;10420892;28;20298;-74
2023/08/21 01:49:37;;;;;;;6.85;1.83;;;;;;;;;;10426299;28;20353;-75
2023/08/21 01:54:38;;;;;;;5.00;2.33;;;;;;;;;;10407775;28;20238;-74
2023/08/21 01:59:40;;;;;;;1.90;1.50;;;;;;;;;;10405297;28;20743;-75
2023/08/21 02:04:41;;;;;;;2.10;2.00;;;;;;;;;;10419466;28;20214;-74
2023/08/21 02:09:42;;;;;;;1.85;1.75;;;;;;;;;;10404893;28;20603;-75
2023/08/21 02:14:45;;;;;;;2.95;1.90;;;;;;;;;;10402016;28;20227;-77
2023/08/21 02:19:46;;;;;;;2.53;2.35;;;;;;;;;;10421428;28;20215;-75
2023/08/21 02:24:48;;;;;;;2.42;2.30;;;;;;;;;;10419326;28;20218;-75
2023/08/21 02:29:49;;;;;;;2.28;1.77;;;;;;;;;;10418964;28;20222;-75
2023/08/21 02:34:50;;;;;;;4.30;1.77;;;;;;;;;;10425686;28;20211;-75
2023/08/21 02:39:51;;;;;;;2.22;2.03;;;;;;;;;;10416065;28;20368;-75
2023/08/21 02:44:52;;;;;;;2.97;1.73;;;;;;;;;;10403874;28;20246;-74
2023/08/21 02:49:53;;;;;;;2.05;1.95;;;;;;;;;;10402737;28;20226;-75
2023/08/21 02:54:54;;;;;;;1.95;1.85;;;;;;;;;;10434476;28;20310;-75
2023/08/21 02:59:56;;;;;;;2.10;2.00;;;;;;;;;;10403270;28;20238;-75
2023/08/21 03:04:57;;;;;;;2.05;1.90;;;;;;;;;;10407366;28;20592;-74
2023/08/21 03:09:58;;;;;;;2.53;2.33;;;;;;;;;;10416245;28;20219;-75
2023/08/21 03:14:59;;;;;;;1.98;1.88;;;;;;;;;;10414798;28;20293;-75
2023/08/21 03:20:00;;;;;;;2.83;1.77;;;;;;;;;;10418156;28;20211;-74
2023/08/21 03:25:02;;;;;;;2.03;1.52;;;;;;;;;;10361762;28;20227;-76
2023/08/21 03:30:03;;;;;;;2.85;1.52;;;;;;;;;;10416242;28;20250;-75
2023/08/21 03:35:05;;;;;;;2.97;2.00;;;;;;;;;;10417072;28;20234;-75
2023/08/21 03:40:07;;;;;;;2.60;1.67;;;;;;;;;;10379952;28;20307;-75
2023/08/21 03:45:08;;;;;;;2.00;1.90;;;;;;;;;;10373881;28;20207;-74
2023/08/21 03:50:10;;;;;;;4.53;2.15;;;;;;;;;;10380214;28;20188;-74
2023/08/21 03:55:11;;;;;;;1.73;1.73;;;;;;;;;;10361964;28;20633;-74
2023/08/21 04:00:13;;;;;;;2.42;2.15;;;;;;;;;;10356410;28;20215;-76
2023/08/21 04:05:16;;;;;;;2.42;2.33;;;;;;;;;;10368426;28;20203;-76
2023/08/21 04:10:17;;;;;;;2.40;1.90;;;;;;;;;;10372572;28;20196;-75
2023/08/21 04:15:19;;;;;;;1.63;1.63;;;;;;;;;;10367437;28;20349;-75
2023/08/21 04:20:22;;;;;;;2.13;1.92;;;;;;;;;;10408218;28;21061;-75
2023/08/21 04:25:24;;;;;;;2.88;1.75;;;;;;;;;;10355161;28;20602;-75
2023/08/21 04:30:25;;;;;;;1.80;1.77;;;;;;;;;;10351908;28;20689;-75
2023/08/21 04:35:26;;;;;;;4.25;2.10;;;;;;;;;;10352443;28;20298;-74
2023/08/21 04:40:27;;;;;;;1.70;1.60;;;;;;;;;;10377973;28;20269;-75
2023/08/21 04:45:29;;;;;;;2.13;2.00;;;;;;;;;;10375797;28;20361;-75
2023/08/21 04:50:30;;;;;;;2.08;1.90;;;;;;;;;;10356592;28;20212;-75
2023/08/21 04:55:31;;;;;;;2.92;1.92;;;;;;;;;;10359935;28;20243;-76
2023/08/21 05:00:33;;;;;;;1.77;1.75;;;;;;;;;;10363863;28;20242;-76
2023/08/21 05:05:34;;;;;;;2.50;2.30;;;;;;;;;;10363543;28;20235;-75
2023/08/21 05:10:35;;;;;;;3.28;1.98;;;;;;;;;;10374793;28;20231;-76
2023/08/21 05:15:36;;;;;;;1.98;1.95;;;;;;;;;;10383122;28;20249;-75
2023/08/21 05:20:39;;;;;;;2.28;2.08;;;;;;;;;;10385091;28;20827;-76
2023/08/21 05:25:40;;;;;;;2.10;2.00;;;;;;;;;;10407336;28;20238;-76
2023/08/21 05:30:42;;;;;;;3.30;1.90;;;;;;;;;;10385897;28;20215;-76
2023/08/21 05:35:43;;;;;;;2.45;2.30;;;;;;;;;;10409074;28;20252;-76
2023/08/21 05:40:45;;;;;;;2.05;1.95;;;;;;;;;;10397938;28;20223;-78
2023/08/21 05:45:46;;;;;;;4.57;2.20;;;;;;;;;;10406878;28;20226;-78
2023/08/21 05:50:52;;;;;;;3.13;1.77;;;;;;;;;;10420180;28;20272;-76
2023/08/21 05:55:53;;;;;;;5.97;2.85;;;;;;;;;;10403209;28;20215;-78
2023/08/21 06:00:54;;;;;;;1.95;1.85;;;;;;;;;;10390110;28;20222;-76
2023/08/21 06:05:56;;;;;;;1.85;1.65;;;;;;;;;;10377131;28;20211;-76
2023/08/21 06:10:57;;;;;;;1.88;1.88;;;;;;;;;;10402153;28;20250;-75
2023/08/21 06:15:58;;;;;;;5.55;1.90;;;;;;;;;;10402166;28;20238;-76
2023/08/21 06:21:01;;;;;;;1.80;1.45;;;;;;;;;;10376726;28;20329;-76
2023/08/21 06:26:02;;;;;;;2.40;1.85;;;;;;;;;;10405702;28;20246;-75
2023/08/21 06:31:07;;;;;;;2.10;2.00;;;;;;;;;;10398361;28;20210;-75
2023/08/21 06:36:08;;;;;;;1.85;1.80;;;;;;;;;;10409095;28;20223;-75
2023/08/21 06:41:09;;;;;;;1.67;1.67;;;;;;;;;;10401522;28;20618;-75
2023/08/21 06:46:10;;;;;;;2.03;1.92;;;;;;;;;;10383385;28;20214;-74
2023/08/21 06:51:12;;;;;;;1.52;1.42;;;;;;;;;;10399163;28;20214;-75
2023/08/21 06:56:13;;;;;;;1.33;1.33;;;;;;;;;;10405121;28;20218;-74
2023/08/21 07:01:14;;;;;;;1.20;1.20;;;;;;;;;;10398744;28;20729;-75
2023/08/21 07:06:15;;;;;;;1.95;1.30;;;;;;;;;;10380818;28;20232;-74
2023/08/21 07:11:17;;;;;;;1.25;1.17;;;;;;;;;;10395616;28;20876;-74
2023/08/21 07:16:18;;;;;;;3.60;1.23;;;;;;;;;;10372028;28;20224;-74
2023/08/21 07:21:19;;;;;;;2.50;1.45;;;;;;;;;;10377232;28;20226;-75
2023/08/21 07:26:20;;;;;;;0.63;0.63;;;;;;;;;;10358743;28;20226;-73
2023/08/21 07:31:21;;;;;;;0.75;0.75;;;;;;;;;;10374154;28;20246;-74
2023/08/21 07:36:23;;;;;;;0.52;0.52;;;;;;;;;;10374148;28;20216;-74
2023/08/21 07:41:24;;;;;;;0.80;0.50;;;;;;;;;;10376667;28;20764;-74
2023/08/21 07:46:25;;;;;;;0.50;0.47;;;;;;;;;;10368960;28;20218;-74
2023/08/21 07:51:26;;;;;;;0.90;0.60;;;;;;;;;;10351285;28;20230;-78
2023/08/21 07:56:27;;;;;;;2.83;1.20;;;;;;;;;;10369058;28;20215;-77
2023/08/21 08:01:28;;;;;;;1.95;0.70;;;;;;;;;;10367847;28;20250;-77
2023/08/21 08:06:29;;;;;;;0.80;0.80;;;;;;;;;;10369114;28;20230;-80
2023/08/21 08:11:30;;;;;;;4.18;0.95;;;;;;;;;;10369449;28;20222;-77
2023/08/21 08:16:31;;;;;;;1.10;0.60;;;;;;;;;;10369748;28;20235;-77
2023/08/21 08:21:32;;;;;;;0.75;0.60;;;;;;;;;;10367593;28;20335;-80
2023/08/21 08:26:34;;;;;;;0.50;0.50;;;;;;;;;;10368328;28;20226;-77
2023/08/21 08:31:35;;;;;;;0.60;0.60;;;;;;;;;;10369911;28;20997;-82
2023/08/21 08:36:36;;;;;;;1.60;0.55;;;;;;;;;;10362506;28;20621;-77
2023/08/21 08:41:42;;;;;;;1.00;0.63;;;;;;;;;;10353208;28;20230;-78
2023/08/21 08:46:43;;;;;;;1.95;0.65;;;;;;;;;;10363334;28;20219;-77
2023/08/21 08:51:44;;;;;;;0.77;0.50;;;;;;;;;;10347651;28;20218;-77
2023/08/21 08:56:49;;;;;;;1.15;0.50;;;;;;;;;;10366840;28;20234;-77
2023/08/21 09:01:52;;;;;;;1.20;0.88;;;;;;;;;;10365336;28;20223;-77
2023/08/21 09:07:06;;;;;;;0.65;0.65;;;;;;;;;;10367996;28;20228;-77
2023/08/21 09:12:12;;;;;;;1.65;1.00;;;;;;;;;;10366628;28;20230;-77
2023/08/21 09:17:13;;;;;;;0.63;0.63;;;;;;;;;;10355778;28;20254;-78
2023/08/21 09:22:15;;;;;;;0.68;0.68;;;;;;;;;;10363209;28;20227;-78
2023/08/21 09:27:17;;;;;;;0.70;0.70;;;;;;;;;;10374365;28;20223;-80
2023/08/21 09:32:18;;;;;;;3.00;0.77;;;;;;;;;;10353435;28;20212;-79
2023/08/21 09:37:19;;;;;;;0.73;0.73;;;;;;;;;;10369964;28;20216;-78
2023/08/21 09:42:21;;;;;;;0.60;0.60;;;;;;;;;;10377146;28;20644;-80
2023/08/21 09:47:24;;;;;;;0.73;0.70;;;;;;;;;;10376391;28;20265;-78
2023/08/21 09:52:26;;;;;;;1.30;0.77;;;;;;;;;;10372018;28;20788;-78
2023/08/21 09:57:27;;;;;;;0.80;0.80;;;;;;;;;;10358696;28;20281;-78
2023/08/21 10:02:29;;;;;;;0.88;0.88;;;;;;;;;;10372364;28;20219;-77
2023/08/21 10:07:30;;;;;;;0.82;0.65;;;;;;;;;;10356766;28;20257;-81
2023/08/21 10:12:31;;;;;;;1.45;0.63;;;;;;;;;;10358097;28;20745;-79
2023/08/21 10:17:33;;;;;;;0.50;0.50;;;;;;;;;;10357397;28;20234;-78
2023/08/21 10:22:43;;;;;;;2.10;0.60;;;;;;;;;;10371314;28;20212;-79
2023/08/21 10:27:44;;;;;;;1.75;0.55;;;;;;;;;;10360869;28;20681;-79
2023/08/21 10:32:48;;;;;;;0.38;0.38;;;;;;;;;;10367141;28;20212;-79
2023/08/21 10:38:10;;;;;;;0.80;0.52;;;;;;;;;;10373353;28;20334;-79
2023/08/21 10:43:30;;;;;;;1.67;0.52;;;;;;;;;;10362222;28;20215;-81
2023/08/21 10:48:31;;;;;;;1.05;0.60;;;;;;;;;;10372276;28;20203;-78
2023/08/21 10:53:33;;;;;;;1.63;0.60;;;;;;;;;;10372365;28;20215;-78
2023/08/21 10:58:43;;;;;;;0.57;0.43;;;;;;;;;;10371014;28;20219;-79
2023/08/21 11:03:51;;;;;;;0.63;0.63;;;;;;;;;;10374217;28;20211;-78
2023/08/21 11:08:52;;;;;;;0.70;0.70;;;;;;;;;;10371143;28;20978;-78
2023/08/21 11:13:56;;;;;;;0.95;0.60;;;;;;;;;;10379841;28;20367;-78
2023/08/21 11:18:57;;;;;;;0.77;0.50;;;;;;;;;;10409970;28;20219;-78
2023/08/21 11:23:59;;;;;;;0.65;0.65;;;;;;;;;;10406041;28;20229;-77
2023/08/21 11:29:02;;;;;;;0.50;0.50;;;;;;;;;;10396718;28;20281;-78
2023/08/21 11:34:04;;;;;;;0.85;0.60;;;;;;;;;;10414705;28;20796;-79
2023/08/21 11:39:07;;;;;;;0.40;0.40;;;;;;;;;;10394631;28;20219;-79
2023/08/21 11:44:09;;;;;;;0.40;0.40;;;;;;;;;;10394383;28;20238;-79
2023/08/21 11:49:10;;;;;;;1.00;0.30;;;;;;;;;;10417202;28;20214;-79
2023/08/21 11:54:11;;;;;;;0.30;0.30;;;;;;;;;;10383760;28;20287;-79
2023/08/21 11:59:21;;;;;;;0.88;0.40;;;;;;;;;;10379076;28;20579;-78
2023/08/21 12:04:22;;;;;;;0.70;0.30;;;;;;;;;;10380718;28;20217;-77
2023/08/21 12:09:23;;;;;;;0.82;0.40;;;;;;;;;;10397069;28;20314;-79
2023/08/21 12:14:24;;;;;;;2.67;0.20;;;;;;;;;;10374873;28;22729;-79
2023/08/21 12:19:26;;;;;;;1.00;0.30;;;;;;;;;;10341870;28;20696;-78
2023/08/21 12:24:27;;;;;;;0.30;0.30;;;;;;;;;;10358135;28;20207;-79
2023/08/21 12:29:28;;;;;;;2.85;0.32;;;;;;;;;;10355230;28;20243;-79
2023/08/21 12:34:29;;;;;;;0.30;0.30;;;;;;;;;;10352474;28;20230;-80
2023/08/21 12:39:30;;;;;;;0.20;0.20;;;;;;;;;;10354527;28;20219;-80
2023/08/21 12:44:35;;;;;;;1.13;0.30;;;;;;;;;;10357826;28;20219;-76
2023/08/21 12:49:36;;;;;;;0.20;0.20;;;;;;;;;;10346747;28;20222;-79
2023/08/21 12:54:37;;;;;;;0.47;0.47;;;;;;;;;;10354275;28;20693;-79
2023/08/21 12:59:38;;;;;;;0.30;0.30;;;;;;;;;;10354393;28;20637;-79
2023/08/21 13:04:39;;;;;;;1.83;0.50;;;;;;;;;;10366708;28;20882;-78
2023/08/21 13:09:40;;;;;;;1.88;0.40;;;;;;;;;;10340118;28;20225;-78
2023/08/21 13:14:41;;;;;;;0.50;0.38;;;;;;;;;;10345680;28;20242;-78
2023/08/21 13:19:43;;;;;;;0.32;0.32;;;;;;;;;;10360108;28;20309;-78
2023/08/21 13:24:44;;;;;;;0.63;0.50;;;;;;;;;;10375171;28;20368;-79
2023/08/21 13:29:46;;;;;;;0.40;0.40;;;;;;;;;;10369470;28;20211;-78
2023/08/21 13:34:47;;;;;;;0.73;0.40;;;;;;;;;;10371353;28;20230;-80
2023/08/21 13:39:48;;;;;;;0.47;0.35;;;;;;;;;;10358164;28;23340;-77
2023/08/21 13:44:49;;;;;;;0.30;0.30;;;;;;;;;;10376433;28;21478;-76
2023/08/21 13:49:50;;;;;;;0.43;0.30;;;;;;;;;;10379848;28;20731;-80
2023/08/21 13:54:51;;;;;;;0.38;0.30;;;;;;;;;;10358708;28;20745;-78
2023/08/21 13:59:53;;;;;;;4.05;0.20;;;;;;;;;;10358825;28;20219;-78
2023/08/21 14:04:54;;;;;;;1.00;0.57;;;;;;;;;;10351283;28;20226;-77
2023/08/21 14:09:55;;;;;;;5.10;0.40;;;;;;;;;;10345502;28;20216;-77
2023/08/21 14:14:56;;;;;;;3.28;0.40;;;;;;;;;;10338926;28;21762;-79
2023/08/21 14:19:57;;;;;;;0.75;0.40;;;;;;;;;;10374288;28;20274;-79
2023/08/21 14:24:58;;;;;;;0.20;0.20;;;;;;;;;;10345187;28;20235;-79
2023/08/21 14:29:59;;;;;;;0.30;0.30;;;;;;;;;;10364750;28;20643;-77
2023/08/21 14:35:01;;;;;;;0.30;0.30;;;;;;;;;;10379821;28;20223;-76
2023/08/21 14:40:07;;;;;;;2.10;0.35;;;;;;;;;;10365030;28;20235;-78
2023/08/21 14:45:08;;;;;;;1.17;0.38;;;;;;;;;;10350411;28;20247;-78
2023/08/21 14:50:10;;;;;;;0.80;0.30;;;;;;;;;;10337500;28;20215;-76
2023/08/21 14:55:11;;;;;;;0.30;0.30;;;;;;;;;;10296531;28;20232;-77
2023/08/21 15:00:13;;;;;;;0.70;0.50;;;;;;;;;;10309546;28;20596;-77
2023/08/21 15:05:16;;;;;;;0.30;0.30;;;;;;;;;;10304408;28;20279;-76
2023/08/21 15:10:17;;;;;;;0.45;0.40;;;;;;;;;;10304541;28;20220;-76
2023/08/21 15:15:20;;;;;;;0.47;0.40;;;;;;;;;;10319912;28;20370;-77
2023/08/21 15:20:21;;;;;;;2.22;0.30;;;;;;;;;;10358753;28;20674;-78
2023/08/21 15:25:22;;;;;;;1.13;0.50;;;;;;;;;;10349090;28;20204;-77
2023/08/21 15:30:24;;;;;;;0.90;0.30;;;;;;;;;;10338893;28;20234;-79
2023/08/21 15:35:25;;;;;;;1.13;0.30;;;;;;;;;;10342093;28;20283;-76
2023/08/21 15:40:26;;;;;;;0.30;0.30;;;;;;;;;;10347012;28;20255;-78
2023/08/21 15:45:27;;;;;;;0.82;0.30;;;;;;;;;;10357238;28;20254;-77
2023/08/21 15:50:28;;;;;;;0.32;0.32;;;;;;;;;;10367719;28;20275;-79
2023/08/21 15:55:29;;;;;;;0.30;0.30;;;;;;;;;;10365745;28;20272;-78
2023/08/21 16:00:30;;;;;;;0.70;0.47;;;;;;;;;;10365248;28;20755;-77
2023/08/21 16:05:32;;;;;;;0.40;0.40;;;;;;;;;;10365578;28;20804;-79
2023/08/21 16:10:33;;;;;;;0.30;0.30;;;;;;;;;;10368809;28;20494;-78
2023/08/21 16:15:34;;;;;;;2.25;0.38;;;;;;;;;;10380367;28;20262;-77
2023/08/21 16:20:35;;;;;;;0.65;0.40;;;;;;;;;;10391397;28;20848;-77
2023/08/21 16:25:36;;;;;;;0.55;0.30;;;;;;;;;;10398717;28;20227;-78
2023/08/21 16:30:37;;;;;;;0.68;0.40;;;;;;;;;;10408179;28;20639;-78
2023/08/21 16:35:39;;;;;;;1.52;0.28;;;;;;;;;;10384271;28;20238;-77
2023/08/21 16:40:40;;;;;;;1.65;0.50;;;;;;;;;;10400870;28;20222;-79
2023/08/21 16:45:41;;;;;;;0.30;0.30;;;;;;;;;;10405678;28;20223;-77
2023/08/21 16:50:42;;;;;;;0.60;0.30;;;;;;;;;;10385948;28;20229;-78
2023/08/21 16:55:44;;;;;;;0.30;0.30;;;;;;;;;;10414728;28;20215;-78
2023/08/21 17:00:45;;;;;;;0.30;0.30;;;;;;;;;;10396956;28;20234;-79
2023/08/21 17:05:46;;;;;;;3.00;0.73;;;;;;;;;;10398530;28;20214;-77
2023/08/21 17:10:47;;;;;;;0.68;0.32;;;;;;;;;;10397423;28;20221;-80
2023/08/21 17:15:48;;;;;;;0.47;0.30;;;;;;;;;;10395415;28;20594;-78
2023/08/21 17:20:49;;;;;;;1.23;0.20;;;;;;;;;;10395358;28;20215;-78
2023/08/21 17:25:51;;;;;;;0.40;0.40;;;;;;;;;;10396600;28;20770;-78
2023/08/21 17:30:52;;;;;;;3.42;0.40;;;;;;;;;;10394101;28;20210;-78
2023/08/21 17:35:53;;;;;;;1.02;0.47;;;;;;;;;;10397808;28;20740;-80
2023/08/21 17:40:54;;;;;;;0.73;0.30;;;;;;;;;;10407133;28;20288;-79
2023/08/21 17:45:55;;;;;;;0.30;0.28;;;;;;;;;;10386266;28;20219;-79
2023/08/21 17:50:56;;;;;;;2.20;0.32;;;;;;;;;;10364156;28;20254;-78
2023/08/21 17:56:01;;;;;;;2.08;0.50;;;;;;;;;;10345458;28;20635;-78
2023/08/21 18:01:02;;;;;;;0.30;0.30;;;;;;;;;;10340024;28;20235;-79
2023/08/21 18:06:05;;;;;;;0.90;0.40;;;;;;;;;;10340999;28;20705;-78
2023/08/21 18:11:07;;;;;;;0.47;0.47;;;;;;;;;;10353633;28;20227;-77
2023/08/21 18:16:08;;;;;;;0.40;0.40;;;;;;;;;;10349512;28;20238;-78
2023/08/21 18:21:09;;;;;;;0.22;0.22;;;;;;;;;;10367609;28;20271;-77
2023/08/21 18:26:10;;;;;;;0.40;0.40;;;;;;;;;;10355225;28;20219;-78
2023/08/21 18:31:11;;;;;;;0.45;0.32;;;;;;;;;;10362469;28;20245;-77
2023/08/21 18:36:12;;;;;;;0.40;0.40;;;;;;;;;;10357207;28;20221;-77
2023/08/21 18:41:14;;;;;;;1.10;0.40;;;;;;;;;;10361280;28;20222;-77
2023/08/21 18:46:15;;;;;;;0.30;0.30;;;;;;;;;;10350813;28;20250;-79
2023/08/21 18:51:16;;;;;;;1.48;0.47;;;;;;;;;;10359570;28;20211;-78
2023/08/21 18:56:17;;;;;;;2.28;0.45;;;;;;;;;;10360210;28;20223;-78
2023/08/21 19:01:18;;;;;;;3.45;0.55;;;;;;;;;;10358259;28;20227;-79
2023/08/21 19:06:19;;;;;;;4.57;0.38;;;;;;;;;;10342118;28;20223;-78
2023/08/21 19:11:22;;;;;;;1.75;0.40;;;;;;;;;;10340256;28;20212;-77
2023/08/21 19:16:23;;;;;;;0.40;0.40;;;;;;;;;;10341144;28;21115;-78
2023/08/21 19:21:24;;;;;;;0.52;0.47;;;;;;;;;;10356717;28;20236;-79
2023/08/21 19:26:25;;;;;;;0.45;0.45;;;;;;;;;;10354933;28;20259;-79
2023/08/21 19:31:26;;;;;;;0.77;0.30;;;;;;;;;;10356397;28;20311;-77
2023/08/21 19:36:27;;;;;;;1.38;0.30;;;;;;;;;;10377756;28;20234;-76
2023/08/21 19:41:28;;;;;;;1.25;0.50;;;;;;;;;;10339381;28;20223;-78
2023/08/21 19:46:29;;;;;;;0.30;0.30;;;;;;;;;;10352786;28;20220;-77
2023/08/21 19:51:30;;;;;;;1.48;0.30;;;;;;;;;;10367950;28;20219;-77
2023/08/21 19:56:32;;;;;;;2.35;0.40;;;;;;;;;;10340431;28;20239;-77
2023/08/21 20:01:33;;;;;;;0.80;0.40;;;;;;;;;;10359767;28;20349;-77
2023/08/21 20:06:34;;;;;;;1.23;0.43;;;;;;;;;;10344974;28;20219;-78
2023/08/21 20:11:35;;;;;;;1.20;0.35;;;;;;;;;;10361331;28;20235;-77
2023/08/21 20:16:36;;;;;;;10.05;0.70;;;;;;;;;;10339621;28;20231;-77
2023/08/21 20:21:38;;;;;;;4.60;0.85;;;;;;;;;;10366852;28;20211;-79
2023/08/21 20:26:39;;;;;;;3.03;0.90;;;;;;;;;;10350209;28;20322;-77
2023/08/21 20:31:40;;;;;;;2.47;0.57;;;;;;;;;;10368292;28;20219;-77
2023/08/21 20:36:41;;;;;;;2.60;0.70;;;;;;;;;;10353680;28;20223;-77
2023/08/21 20:41:42;;;;;;;1.65;0.70;;;;;;;;;;10348512;28;20593;-77
2023/08/21 20:46:43;;;;;;;1.35;0.63;;;;;;;;;;10349158;28;20222;-77
2023/08/21 20:51:44;;;;;;;4.30;0.85;;;;;;;;;;10373147;28;20250;-76
2023/08/21 20:56:45;;;;;;;1.15;0.70;;;;;;;;;;10370872;28;20219;-77
2023/08/21 21:01:46;;;;;;;0.85;0.60;;;;;;;;;;10375980;28;21493;-77
2023/08/21 21:06:48;;;;;;;1.90;0.60;;;;;;;;;;10356657;28;20828;-77
2023/08/21 21:11:49;;;;;;;0.90;0.60;;;;;;;;;;10376952;28;20223;-77
2023/08/21 21:16:51;;;;;;;1.00;0.90;;;;;;;;;;10359565;28;20266;-78
2023/08/21 21:21:53;;;;;;;1.48;0.55;;;;;;;;;;10353854;28;20261;-77
2023/08/21 21:26:54;;;;;;;1.02;0.68;;;;;;;;;;10371878;28;20222;-77
2023/08/21 21:31:55;;;;;;;0.55;0.55;;;;;;;;;;10359536;28;20628;-77
2023/08/21 21:36:56;;;;;;;0.52;0.52;;;;;;;;;;10366081;28;20222;-77
2023/08/21 21:41:57;;;;;;;2.17;0.38;;;;;;;;;;10371352;28;20230;-78
2023/08/21 21:46:58;;;;;;;3.35;0.65;;;;;;;;;;10406339;28;20325;-78
2023/08/21 21:52:00;;;;;;;5.75;0.52;;;;;;;;;;10400019;28;20222;-78
2023/08/21 21:57:02;;;;;;;1.95;0.63;;;;;;;;;;10405523;28;20226;-78
2023/08/21 22:02:03;;;;;;;0.60;0.50;;;;;;;;;;10411684;28;20234;-79
2023/08/21 22:07:04;;;;;;;0.63;0.63;;;;;;;;;;10386805;28;20324;-78
2023/08/21 22:12:06;;;;;;;1.73;0.32;;;;;;;;;;10421456;28;20280;-78
2023/08/21 22:17:07;;;;;;;1.65;0.32;;;;;;;;;;10398464;28;20227;-78
2023/08/21 22:22:08;;;;;;;0.68;0.68;;;;;;;;;;10393355;28;20261;-78
2023/08/21 22:27:09;;;;;;;1.27;0.50;;;;;;;;;;10409152;28;20223;-78
2023/08/21 22:32:10;;;;;;;0.55;0.45;;;;;;;;;;10409920;28;20207;-78
2023/08/21 22:37:11;;;;;;;0.40;0.40;;;;;;;;;;10394519;28;21770;-79
2023/08/21 22:42:12;;;;;;;1.10;0.63;;;;;;;;;;10405412;28;20280;-79
2023/08/21 22:47:13;;;;;;;0.40;0.40;;;;;;;;;;10404334;28;20226;-78
2023/08/21 22:52:14;;;;;;;3.38;0.55;;;;;;;;;;10418940;28;20219;-78
2023/08/21 22:57:15;;;;;;;0.40;0.40;;;;;;;;;;10403451;28;20251;-78
2023/08/21 23:02:16;;;;;;;2.33;0.70;;;;;;;;;;10397857;28;20851;-78
2023/08/21 23:07:17;;;;;;;4.03;0.90;;;;;;;;;;10383294;28;20293;-78
2023/08/21 23:12:18;;;;;;;1.13;0.60;;;;;;;;;;10402958;28;20227;-78
2023/08/21 23:17:19;;;;;;;0.40;0.40;;;;;;;;;;10403378;28;20223;-78
2023/08/21 23:22:20;;;;;;;0.75;0.75;;;;;;;;;;10413175;28;20685;-78
2023/08/21 23:27:21;;;;;;;0.88;0.63;;;;;;;;;;10400604;28;20310;-78
2023/08/21 23:32:22;;;;;;;0.50;0.50;;;;;;;;;;10420850;28;20218;-78
2023/08/21 23:37:24;;;;;;;0.40;0.40;;;;;;;;;;10400389;28;20886;-77
2023/08/21 23:42:25;;;;;;;1.45;0.40;;;;;;;;;;10416592;28;20337;-78
2023/08/21 23:47:26;;;;;;;0.90;0.45;;;;;;;;;;10404109;28;20701;-77
2023/08/21 23:52:27;;;;;;;0.30;0.30;;;;;;;;;;10391496;28;20211;-78
2023/08/21 23:57:28;;;;;;;1.17;0.40;;;;;;;;;;10409874;28;20310;-77
